createdAt,value
2018-09-14T00:00:48.365Z,65.20
2018-09-14T00:05:58.322Z,65.20
2018-09-14T00:21:27.495Z,65.30
2018-09-14T00:26:37.646Z,65.20
2018-09-14T00:31:48.084Z,65.30
2018-09-14T00:36:58.021Z,65.30
2018-09-14T00:44:43.222Z,65.50
2018-09-14T00:55:03.407Z,65.40
2018-09-14T01:02:48.076Z,65.30
2018-09-14T01:07:58.101Z,65.40
2018-09-14T01:13:08.000Z,65.40
2018-09-14T01:15:43.042Z,65.60
2018-09-14T01:28:37.208Z,65.50
2018-09-14T01:33:47.376Z,65.50
2018-09-14T01:36:22.408Z,65.40
2018-09-14T01:41:32.269Z,65.50
2018-09-14T01:46:42.944Z,65.60
2018-09-14T01:51:53.041Z,65.50
2018-09-14T01:57:02.881Z,65.60
2018-09-14T02:02:12.798Z,65.70
2018-09-14T02:07:22.655Z,65.60
2018-09-14T02:09:57.799Z,65.60
2018-09-14T02:12:32.869Z,65.50
2018-09-14T02:15:07.942Z,65.60
2018-09-14T02:17:43.074Z,65.60
2018-09-14T02:20:19.122Z,65.60
2018-09-14T02:22:54.317Z,65.70
2018-09-14T02:28:04.341Z,65.80
2018-09-14T02:33:14.214Z,65.70
2018-09-14T02:40:58.693Z,65.90
2018-09-14T02:46:09.050Z,65.80
2018-09-14T02:56:28.336Z,65.70
2018-09-14T03:06:49.081Z,66.00
2018-09-14T03:11:59.106Z,66.00
2018-09-14T03:14:34.250Z,65.90
2018-09-14T03:17:09.426Z,65.90
2018-09-14T03:19:44.475Z,65.90
2018-09-14T03:22:19.614Z,65.90
2018-09-14T03:27:29.469Z,65.80
2018-09-14T03:35:14.119Z,66.10
2018-09-14T03:40:24.049Z,66.10
2018-09-14T03:48:09.072Z,66.10
2018-09-14T03:53:18.885Z,66.20
2018-09-14T03:58:29.465Z,66.20
2018-09-14T04:06:14.310Z,66.20
2018-09-14T04:08:49.337Z,66.10
2018-09-14T04:19:09.108Z,66.20
2018-09-14T04:24:19.368Z,66.30
2018-09-14T04:32:04.152Z,66.30
2018-09-14T04:34:39.207Z,66.40
2018-09-14T04:42:23.630Z,66.40
2018-09-14T04:47:33.845Z,66.50
2018-09-14T04:52:43.706Z,66.60
2018-09-14T04:55:18.737Z,66.40
2018-09-14T04:57:53.785Z,66.50
2018-09-14T05:03:04.261Z,66.60
2018-09-14T05:08:14.217Z,66.50
2018-09-14T05:10:49.244Z,66.50
2018-09-14T05:15:59.260Z,66.60
2018-09-14T05:21:09.133Z,66.50
2018-09-14T05:26:19.240Z,66.60
2018-09-14T05:36:38.749Z,66.70
2018-09-14T05:41:49.189Z,66.60
2018-09-14T05:44:24.232Z,66.50
2018-09-14T05:46:59.275Z,66.60
2018-09-14T05:57:19.209Z,66.50
2018-09-14T06:05:04.067Z,66.30
2018-09-14T06:10:14.180Z,66.30
2018-09-14T06:15:24.468Z,66.30
2018-09-14T06:20:34.309Z,65.90
2018-09-14T06:23:09.420Z,65.90
2018-09-14T06:25:44.716Z,65.70
2018-09-14T06:33:29.444Z,65.30
2018-09-14T06:38:39.332Z,65.00
2018-09-14T06:46:24.178Z,64.90
2018-09-14T06:51:35.635Z,64.80
2018-09-14T06:54:10.772Z,64.60
2018-09-14T06:59:20.715Z,64.30
2018-09-14T07:09:40.054Z,63.70
2018-09-14T07:12:15.228Z,63.50
2018-09-14T07:14:50.292Z,63.50
2018-09-14T07:17:25.694Z,63.30
2018-09-14T07:27:46.116Z,62.90
2018-09-14T07:32:56.464Z,62.10
2018-09-14T07:40:42.647Z,62.10
2018-09-14T07:43:17.620Z,62.20
2018-09-14T07:48:27.466Z,62.00
2018-09-14T07:53:37.581Z,61.80
2018-09-14T07:58:47.316Z,62.00
2018-09-14T08:01:22.378Z,61.70
2018-09-14T08:03:57.476Z,61.70
2018-09-14T08:06:32.549Z,61.50
2018-09-14T08:09:10.086Z,61.20
2018-09-14T08:16:54.892Z,60.90
2018-09-14T08:22:04.871Z,61.10
2018-09-14T08:24:40.295Z,61.00
2018-09-14T08:32:25.703Z,60.20
2018-09-14T08:42:45.964Z,60.50
2018-09-14T08:45:21.013Z,60.70
2018-09-14T08:53:06.653Z,61.10
2018-09-14T09:00:51.366Z,60.50
2018-09-14T09:08:36.328Z,60.50
2018-09-14T09:11:11.390Z,60.30
2018-09-14T09:26:40.875Z,60.00
2018-09-14T09:29:16.052Z,60.80
2018-09-14T09:31:51.181Z,60.50
2018-09-14T09:34:26.220Z,61.00
2018-09-14T09:37:01.376Z,60.90
2018-09-14T09:44:45.859Z,60.80
2018-09-14T09:49:55.853Z,61.00
2018-09-14T09:55:05.703Z,61.20
2018-09-14T10:05:41.438Z,61.10
2018-09-14T10:08:16.514Z,61.20
2018-09-14T10:16:01.610Z,61.20
2018-09-14T10:26:21.651Z,61.20
2018-09-14T10:31:31.506Z,60.80
2018-09-14T10:34:06.671Z,61.00
2018-09-14T10:39:16.924Z,61.30
2018-09-14T10:44:27.065Z,61.30
2018-09-14T10:47:02.152Z,61.30
2018-09-14T10:49:37.671Z,61.50
2018-09-14T10:52:12.809Z,61.50
2018-09-14T10:57:23.218Z,61.60
2018-09-14T11:05:08.302Z,61.60
2018-09-14T11:07:43.472Z,61.50
2018-09-14T11:10:18.577Z,61.60
2018-09-14T11:15:28.447Z,61.60
2018-09-14T11:20:38.512Z,61.50
2018-09-14T11:25:48.875Z,61.50
2018-09-14T11:30:58.798Z,61.70
2018-09-14T11:38:43.509Z,61.60
2018-09-14T11:46:28.531Z,61.60
2018-09-14T11:51:38.375Z,61.60
2018-09-14T11:59:23.737Z,61.50
2018-09-14T12:04:33.490Z,61.60
2018-09-14T12:07:08.576Z,61.70
2018-09-14T12:09:43.651Z,61.60
2018-09-14T12:12:18.797Z,61.60
2018-09-14T12:25:13.313Z,61.70
2018-09-14T12:27:48.381Z,61.80
2018-09-14T12:32:58.245Z,61.60
2018-09-14T12:38:08.201Z,61.90
2018-09-14T12:53:38.036Z,61.60
2018-09-14T12:56:13.084Z,61.70
2018-09-14T12:58:48.742Z,61.70
2018-09-14T13:06:33.863Z,61.80
2018-09-14T13:24:45.776Z,61.80
2018-09-14T13:29:55.899Z,61.90
2018-09-14T13:35:06.109Z,61.90
2018-09-14T13:40:16.073Z,62.00
2018-09-14T13:45:26.561Z,61.90
2018-09-14T13:50:36.368Z,62.10
2018-09-14T13:58:21.517Z,62.00
2018-09-14T14:03:31.443Z,62.20
2018-09-14T14:08:41.410Z,62.10
2018-09-14T14:16:25.997Z,62.20
2018-09-14T14:21:36.217Z,62.10
2018-09-14T14:29:20.875Z,62.10
2018-09-14T14:34:31.043Z,62.10
2018-09-14T14:42:15.470Z,62.10
2018-09-14T14:47:25.921Z,62.20
2018-09-14T14:50:00.961Z,62.20
2018-09-14T14:52:36.133Z,62.20
2018-09-14T14:55:11.210Z,62.40
2018-09-14T15:02:56.005Z,62.40
2018-09-14T15:10:40.991Z,62.40
2018-09-14T15:21:00.793Z,62.40
2018-09-14T15:28:45.245Z,62.60
2018-09-14T15:31:20.360Z,62.60
2018-09-14T15:36:30.789Z,62.70
2018-09-14T15:39:09.506Z,62.60
2018-09-14T15:41:44.564Z,62.70
2018-09-14T15:46:54.812Z,62.60
2018-09-14T15:52:05.262Z,62.80
2018-09-14T15:59:50.371Z,62.70
2018-09-14T16:02:25.420Z,62.70
2018-09-14T16:05:00.558Z,62.70
2018-09-14T16:07:35.629Z,62.80
2018-09-14T16:10:10.777Z,62.80
2018-09-14T16:12:45.982Z,62.80
2018-09-14T16:15:21.028Z,62.90
2018-09-14T16:20:30.868Z,63.00
2018-09-14T16:23:05.901Z,63.00
2018-09-14T16:25:41.034Z,63.00
2018-09-14T16:30:50.892Z,62.90
2018-09-14T16:36:01.079Z,63.10
2018-09-14T16:48:55.719Z,63.00
2018-09-14T16:56:40.340Z,63.10
2018-09-14T17:04:25.094Z,63.20
2018-09-14T17:09:34.997Z,63.40
2018-09-14T17:14:44.956Z,63.20
2018-09-14T17:17:20.021Z,63.30
2018-09-14T17:22:29.956Z,63.30
2018-09-14T17:27:39.833Z,63.40
2018-09-14T17:35:24.545Z,63.40
2018-09-14T17:40:34.728Z,63.40
2018-09-14T17:48:19.360Z,63.40
2018-09-14T17:53:30.256Z,63.40
2018-09-14T17:58:40.381Z,63.50
2018-09-14T18:01:15.454Z,63.60
2018-09-14T18:03:50.489Z,63.50
2018-09-14T18:09:00.290Z,63.60
2018-09-14T18:14:10.679Z,63.50
2018-09-14T18:19:20.456Z,63.50
2018-09-14T18:21:55.700Z,63.60
2018-09-14T18:24:30.721Z,63.60
2018-09-14T18:27:05.777Z,63.70
2018-09-14T18:32:15.692Z,63.70
2018-09-14T18:37:25.738Z,63.70
2018-09-14T18:47:45.777Z,63.70
2018-09-14T18:55:30.492Z,63.90
2018-09-14T19:10:59.922Z,63.90
2018-09-14T19:13:35.090Z,63.90
2018-09-14T19:16:10.194Z,63.90
2018-09-14T19:21:20.417Z,64.00
2018-09-14T19:26:30.314Z,64.00
2018-09-14T19:31:40.210Z,63.90
2018-09-14T19:34:15.306Z,63.90
2018-09-14T19:36:50.947Z,63.80
2018-09-14T19:42:01.101Z,64.00
2018-09-14T19:47:11.242Z,63.90
2018-09-14T19:52:21.299Z,64.00
2018-09-14T19:54:56.365Z,64.00
2018-09-14T20:05:16.236Z,64.00
2018-09-14T20:10:26.618Z,64.00
2018-09-14T20:18:11.212Z,64.20
2018-09-14T20:31:05.267Z,64.20
2018-09-14T20:33:40.409Z,64.30
2018-09-14T20:36:15.541Z,64.30
2018-09-14T20:41:25.714Z,64.30
2018-09-14T20:44:00.780Z,64.30
2018-09-14T20:46:36.104Z,64.30
2018-09-14T20:49:11.252Z,64.30
2018-09-14T20:51:46.500Z,64.30
2018-09-14T20:54:22.123Z,64.30
2018-09-14T20:56:57.132Z,64.40
2018-09-14T20:59:32.156Z,64.30
2018-09-14T21:02:07.536Z,64.30
2018-09-14T21:09:52.637Z,64.40
2018-09-14T21:12:27.809Z,64.50
2018-09-14T21:15:03.244Z,64.40
2018-09-14T21:17:38.380Z,64.50
2018-09-14T21:25:23.466Z,64.50
2018-09-14T21:27:58.589Z,64.60
2018-09-14T21:30:33.648Z,64.60
2018-09-14T21:33:08.713Z,64.60
2018-09-14T21:35:43.837Z,64.60
2018-09-14T21:38:25.350Z,64.70
2018-09-14T21:43:35.154Z,64.70
2018-09-14T21:48:45.340Z,64.70
2018-09-14T21:56:30.087Z,64.80
2018-09-14T22:04:14.761Z,64.80
2018-09-14T22:09:24.868Z,65.10
2018-09-14T22:14:34.904Z,64.90
2018-09-14T22:17:09.956Z,64.90
2018-09-14T22:19:45.017Z,64.80
2018-09-14T22:22:20.191Z,64.90
2018-09-14T22:27:31.443Z,64.90
2018-09-14T22:35:16.825Z,64.90
2018-09-14T22:37:52.048Z,65.00
2018-09-14T22:50:47.004Z,64.80
2018-09-14T22:55:57.025Z,64.90
2018-09-14T22:58:32.053Z,65.00
2018-09-14T23:01:12.674Z,64.70
2018-09-14T23:03:49.123Z,64.90
2018-09-14T23:14:08.669Z,65.10
2018-09-14T23:19:18.492Z,65.00
2018-09-14T23:21:53.577Z,65.00
2018-09-14T23:27:03.892Z,65.00
2018-09-14T23:29:39.014Z,65.00
2018-09-14T23:32:14.074Z,65.10
2018-09-14T23:37:23.936Z,65.00
2018-09-14T23:42:34.128Z,65.10
2018-09-14T23:47:44.385Z,65.00
2018-09-14T23:55:29.487Z,65.10
